Time;durP1;ratioP1;P1;durP2;ratioP2;P2;SDS_P1;SDS_P2;PMS_P1;PMS_P2;Temp;Humidity;BMP_temperature;BMP_pressure;BME280_temperature;BME280_humidity;BME280_pressure;Samples;Min_cycle;Max_cycle;Signal;HPM_P1;HPM_P2
2023/06/19 00:02:25;;;;;;;43.92;10.18;;;;;;;23.10;89.50;99633.66;4952235;28;20290;-72
2023/06/19 00:04:52;;;;;;;29.38;6.07;;;;;;;22.93;89.87;99622.94;4961489;28;20275;-73
2023/06/19 00:07:21;;;;;;;44.88;10.18;;;;;;;22.92;90.06;99616.66;4960475;28;20228;-77
2023/06/19 00:09:48;;;;;;;25.13;5.25;;;;;;;22.90;89.32;99605.09;4965211;28;20570;-76
2023/06/19 00:12:15;;;;;;;24.85;4.97;;;;;;;22.70;93.46;99634.06;4964232;28;20235;-76
2023/06/19 00:14:42;;;;;;;23.98;5.70;;;;;;;22.66;93.94;99634.22;4959411;28;20701;-77
2023/06/19 00:17:09;;;;;;;25.63;5.15;;;;;;;22.71;94.72;99660.06;4957774;28;20245;-74
2023/06/19 00:19:36;;;;;;;20.45;4.10;;;;;;;22.16;100.00;99673.69;4956506;28;20233;-73
2023/06/19 00:22:03;;;;;;;26.95;5.32;;;;;;;22.07;100.00;99720.75;4960222;28;20240;-76
2023/06/19 00:24:30;;;;;;;49.80;10.35;;;;;;;22.02;100.00;99742.53;4956588;28;20230;-78
2023/06/19 00:27:02;;;;;;;23.60;4.63;;;;;;;22.05;100.00;99730.72;4963192;28;20233;-76
2023/06/19 00:29:29;;;;;;;46.85;10.75;;;;;;;22.17;100.00;99731.97;4955499;28;20235;-74
2023/06/19 00:31:56;;;;;;;30.92;6.10;;;;;;;22.07;100.00;99726.16;4953785;28;20690;-74
2023/06/19 00:34:25;;;;;;;53.97;11.52;;;;;;;21.83;100.00;99765.00;4957608;28;20233;-73
2023/06/19 00:36:56;;;;;;;24.48;4.82;;;;;;;21.64;100.00;99773.06;4960462;28;20295;-73
2023/06/19 00:39:23;;;;;;;42.28;9.75;;;;;;;21.66;100.00;99804.34;4956293;28;20239;-74
2023/06/19 00:41:52;;;;;;;26.30;5.22;;;;;;;21.62;100.00;99847.59;4959901;28;20241;-74
2023/06/19 00:44:19;;;;;;;38.42;9.02;;;;;;;21.68;100.00;99831.19;4955557;28;20232;-73
2023/06/19 00:46:46;;;;;;;24.17;5.05;;;;;;;21.87;100.00;99772.84;4963072;28;20243;-72
2023/06/19 00:49:14;;;;;;;25.98;5.90;;;;;;;22.00;100.00;99752.47;4956201;28;20236;-72
2023/06/19 00:51:41;;;;;;;30.20;5.95;;;;;;;22.02;100.00;99747.00;4954350;28;20236;-72
2023/06/19 00:54:08;;;;;;;27.35;5.60;;;;;;;22.00;100.00;99760.53;4958604;28;20232;-73
2023/06/19 00:56:37;;;;;;;28.73;5.78;;;;;;;21.97;100.00;99781.34;4938859;28;20245;-74
2023/06/19 00:59:06;;;;;;;24.75;5.03;;;;;;;22.36;98.71;99778.59;4962792;28;20232;-73
2023/06/19 01:01:33;;;;;;;39.50;8.80;;;;;;;22.43;97.10;99755.78;4955162;28;20662;-74
2023/06/19 01:03:59;;;;;;;33.10;6.60;;;;;;;22.99;91.53;99754.72;4959464;28;20244;-74
2023/06/19 01:06:38;;;;;;;44.95;9.88;;;;;;;23.03;89.91;99713.16;4956811;28;20225;-76
2023/06/19 01:09:10;;;;;;;20.52;4.68;;;;;;;23.30;86.16;99686.50;4960510;28;20754;-76
2023/06/19 01:11:41;;;;;;;34.95;6.72;;;;;;;23.38;86.04;99678.88;4951983;28;20288;-74
2023/06/19 01:14:19;;;;;;;23.25;4.72;;;;;;;23.34;85.53;99663.81;4958665;28;20232;-76
2023/06/19 01:16:49;;;;;;;28.17;5.60;;;;;;;23.38;85.16;99668.06;4958163;28;20248;-77
2023/06/19 01:19:19;;;;;;;37.47;7.40;;;;;;;23.47;85.07;99664.88;4970929;28;20320;-76
2023/06/19 01:21:47;;;;;;;28.88;5.70;;;;;;;23.59;85.71;99679.56;4963138;28;20264;-77
2023/06/19 01:24:14;;;;;;;30.98;6.43;;;;;;;23.59;88.60;99699.31;4959205;28;20248;-74
2023/06/19 01:26:41;;;;;;;28.88;5.80;;;;;;;23.65;90.20;99708.03;4959860;28;20244;-74
2023/06/19 01:29:08;;;;;;;27.58;5.45;;;;;;;23.68;91.53;99733.03;4960183;28;20245;-73
2023/06/19 01:31:50;;;;;;;30.73;5.97;;;;;;;23.52;94.59;99749.16;4951256;28;20248;-74
2023/06/19 01:34:19;;;;;;;38.45;8.73;;;;;;;23.44;97.72;99773.00;4954337;28;20237;-74
2023/06/19 01:36:49;;;;;;;24.42;5.05;;;;;;;23.35;100.00;99792.34;4963430;28;20236;-73
2023/06/19 01:39:17;;;;;;;29.70;6.68;;;;;;;23.40;100.00;99795.69;4956259;28;20233;-73
2023/06/19 01:41:46;;;;;;;28.83;5.68;;;;;;;23.44;99.56;99781.09;4951468;28;20247;-71
2023/06/19 01:44:12;;;;;;;23.17;4.72;;;;;;;23.42;99.71;99777.59;4962538;28;20236;-72
2023/06/19 01:46:39;;;;;;;26.65;5.30;;;;;;;23.34;100.00;99790.59;4957361;28;20243;-73
2023/06/19 01:49:08;;;;;;;27.50;5.43;;;;;;;23.39;99.59;99776.88;4959602;28;20299;-74
2023/06/19 01:51:35;;;;;;;29.60;6.00;;;;;;;23.26;100.00;99796.41;4958095;28;20249;-72
2023/06/19 01:54:04;;;;;;;26.70;5.22;;;;;;;23.22;100.00;99791.25;4961844;28;20231;-71
2023/06/19 01:56:31;;;;;;;46.85;10.45;;;;;;;23.39;100.00;99791.22;4958555;28;20241;-72
2023/06/19 01:58:57;;;;;;;23.05;4.63;;;;;;;23.27;100.00;99803.56;4964339;28;20235;-71
2023/06/19 02:01:24;;;;;;;57.20;11.88;;;;;;;23.16;100.00;99807.78;4957443;28;20240;-72
2023/06/19 02:03:51;;;;;;;31.20;6.15;;;;;;;22.99;100.00;99835.63;4963760;28;20237;-71
2023/06/19 02:06:18;;;;;;;29.45;6.43;;;;;;;22.89;100.00;99853.22;4959989;28;20224;-71
2023/06/19 02:08:45;;;;;;;26.77;5.25;;;;;;;22.96;100.00;99865.44;4961916;28;20612;-71
2023/06/19 02:11:11;;;;;;;21.80;4.55;;;;;;;23.01;100.00;99868.78;4960509;28;20225;-71
2023/06/19 02:13:38;;;;;;;24.30;4.82;;;;;;;23.11;100.00;99870.03;4952953;28;20236;-72
2023/06/19 02:16:06;;;;;;;30.70;5.97;;;;;;;23.07;100.00;99881.06;4960406;28;20235;-72
2023/06/19 02:18:32;;;;;;;34.22;7.63;;;;;;;23.04;100.00;99871.31;4955189;28;20670;-72
2023/06/19 02:20:59;;;;;;;27.25;5.50;;;;;;;22.94;100.00;99881.69;4958705;28;20233;-72
2023/06/19 02:23:26;;;;;;;47.85;10.48;;;;;;;22.87;100.00;99887.47;4952123;28;20697;-72
2023/06/19 02:25:52;;;;;;;28.75;5.88;;;;;;;22.82;100.00;99890.41;4960607;28;20236;-72
2023/06/19 02:28:20;;;;;;;48.35;10.25;;;;;;;22.77;100.00;99903.19;4955843;28;20292;-72
2023/06/19 02:30:46;;;;;;;25.92;5.03;;;;;;;22.68;100.00;99919.81;4958581;28;20244;-71
2023/06/19 02:33:13;;;;;;;22.08;4.47;;;;;;;22.56;100.00;99932.06;4954548;28;20228;-73
2023/06/19 02:35:41;;;;;;;26.17;5.18;;;;;;;22.42;100.00;99945.34;4959429;28;20240;-72
2023/06/19 02:38:08;;;;;;;25.17;5.10;;;;;;;22.34;100.00;99964.56;4961671;28;20234;-72
2023/06/19 02:40:35;;;;;;;25.90;5.50;;;;;;;22.31;100.00;99997.03;4956172;28;20267;-71
2023/06/19 02:43:01;;;;;;;32.83;6.40;;;;;;;22.01;100.00;100044.13;4959830;28;20235;-72
2023/06/19 02:45:28;;;;;;;41.05;10.20;;;;;;;21.71;100.00;100087.59;4955454;28;20236;-72
2023/06/19 02:47:55;;;;;;;21.17;4.20;;;;;;;21.53;100.00;100114.38;4960761;28;20240;-72
2023/06/19 02:50:22;;;;;;;45.92;9.82;;;;;;;21.28;100.00;100139.59;4950344;28;20268;-72
2023/06/19 02:52:49;;;;;;;24.50;4.65;;;;;;;21.19;100.00;100182.94;4961218;28;20229;-71
2023/06/19 02:55:16;;;;;;;29.15;6.18;;;;;;;21.12;100.00;100221.75;4961282;28;20262;-72
2023/06/19 02:57:43;;;;;;;23.60;4.85;;;;;;;21.13;100.00;100230.69;4955188;28;20225;-72
2023/06/19 03:00:11;;;;;;;36.88;7.32;;;;;;;21.06;100.00;100246.19;4963526;28;20229;-71
2023/06/19 03:02:42;;;;;;;29.95;6.00;;;;;;;20.89;100.00;100265.63;4961008;28;20241;-71
2023/06/19 03:05:10;;;;;;;26.40;5.30;;;;;;;20.89;100.00;100264.75;4969663;28;20246;-72
2023/06/19 03:07:37;;;;;;;29.90;6.30;;;;;;;20.84;100.00;100290.91;4957427;28;20244;-73
2023/06/19 03:10:04;;;;;;;31.85;6.32;;;;;;;20.77;100.00;100306.34;4964145;28;20248;-73
2023/06/19 03:12:31;;;;;;;52.65;12.18;;;;;;;20.70;100.00;100327.16;4965045;28;20232;-74
2023/06/19 03:14:57;;;;;;;22.23;4.68;;;;;;;20.64;100.00;100339.94;4966031;28;20221;-73
2023/06/19 03:17:24;;;;;;;48.22;10.38;;;;;;;20.53;100.00;100359.09;4956291;28;20229;-74
2023/06/19 03:19:51;;;;;;;20.77;4.10;;;;;;;20.55;100.00;100370.66;4964690;28;20654;-73
2023/06/19 03:22:19;;;;;;;42.00;9.35;;;;;;;20.54;100.00;100378.78;4958917;28;20248;-73
2023/06/19 03:24:46;;;;;;;26.55;5.20;;;;;;;20.51;100.00;100384.25;4963842;28;20241;-73
2023/06/19 03:27:13;;;;;;;30.00;5.88;;;;;;;20.43;100.00;100390.75;4943085;28;20698;-72
2023/06/19 03:29:39;;;;;;;36.83;7.05;;;;;;;20.36;100.00;100407.09;4961450;28;20237;-73
2023/06/19 03:32:06;;;;;;;22.05;4.50;;;;;;;20.31;100.00;100409.91;4962518;28;20244;-72
2023/06/19 03:34:33;;;;;;;33.42;6.68;;;;;;;20.32;100.00;100417.03;4954290;28;20245;-73
2023/06/19 03:37:00;;;;;;;24.60;4.85;;;;;;;20.31;100.00;100412.59;4958985;28;20243;-73
2023/06/19 03:39:27;;;;;;;42.28;9.70;;;;;;;20.22;100.00;100414.69;4951621;28;20686;-74
2023/06/19 03:41:53;;;;;;;31.20;6.07;;;;;;;20.12;100.00;100430.19;4961628;28;20248;-73
2023/06/19 03:44:20;;;;;;;49.17;11.05;;;;;;;20.18;100.00;100432.69;4961804;28;20237;-74
2023/06/19 03:46:47;;;;;;;27.02;5.32;;;;;;;20.33;100.00;100421.47;4957209;28;20244;-73
2023/06/19 03:49:14;;;;;;;33.15;7.03;;;;;;;20.18;100.00;100408.53;4959456;28;20256;-73
2023/06/19 03:51:40;;;;;;;34.22;6.80;;;;;;;20.18;100.00;100405.84;4964474;28;20243;-74
2023/06/19 03:54:07;;;;;;;25.77;5.13;;;;;;;20.26;100.00;100387.69;4962222;28;20733;-72
2023/06/19 03:56:34;;;;;;;35.00;7.10;;;;;;;20.32;100.00;100400.94;4960094;28;20244;-73
2023/06/19 03:59:00;;;;;;;26.20;5.20;;;;;;;20.27;100.00;100399.31;4967353;28;20595;-74
2023/06/19 04:01:27;;;;;;;53.33;11.95;;;;;;;20.34;100.00;100396.38;4957060;28;20243;-73
2023/06/19 04:03:54;;;;;;;25.15;4.85;;;;;;;20.31;100.00;100385.75;4968794;28;20239;-75
2023/06/19 04:06:20;;;;;;;40.00;8.73;;;;;;;20.35;100.00;100386.53;4958618;28;20227;-75
2023/06/19 04:08:47;;;;;;;21.58;4.25;;;;;;;20.39;100.00;100382.84;4959841;28;20229;-76
2023/06/19 04:11:14;;;;;;;24.05;4.85;;;;;;;20.50;100.00;100385.19;4955323;28;20319;-74
2023/06/19 04:13:41;;;;;;;24.40;4.82;;;;;;;20.49;100.00;100372.69;4959566;28;20233;-76
2023/06/19 04:16:08;;;;;;;24.60;4.95;;;;;;;20.44;100.00;100370.16;4958093;28;20712;-76
2023/06/19 04:18:34;;;;;;;24.75;4.85;;;;;;;20.40;100.00;100398.91;4954085;28;20374;-76
2023/06/19 04:21:01;;;;;;;20.73;4.13;;;;;;;20.45;100.00;100405.00;4961048;28;20233;-76
2023/06/19 04:23:28;;;;;;;48.22;10.25;;;;;;;20.54;100.00;100408.34;4951839;28;20221;-75
2023/06/19 04:25:55;;;;;;;19.42;3.97;;;;;;;20.68;100.00;100398.91;4964951;28;20229;-75
2023/06/19 04:28:22;;;;;;;33.92;7.13;;;;;;;20.67;100.00;100402.50;4942431;28;20229;-75
2023/06/19 04:30:48;;;;;;;20.73;4.13;;;;;;;20.74;100.00;100379.00;4961662;28;20225;-76
2023/06/19 04:33:15;;;;;;;22.02;4.70;;;;;;;20.70;100.00;100405.09;4958861;28;20592;-76
2023/06/19 04:35:42;;;;;;;20.70;4.03;;;;;;;20.69;100.00;100402.47;4964904;28;20259;-74
2023/06/19 04:38:09;;;;;;;22.27;7.75;;;;;;;20.74;100.00;100412.13;4964006;28;20238;-76
2023/06/19 04:40:37;;;;;;;31.42;8.93;;;;;;;20.66;100.00;100432.13;4955061;28;20247;-77
2023/06/19 04:43:05;;;;;;;22.60;5.05;;;;;;;20.70;100.00;100440.03;4964750;28;20236;-76
2023/06/19 04:45:32;;;;;;;53.80;9.23;;;;;;;20.73;100.00;100434.56;4955536;28;20665;-76
2023/06/19 04:48:02;;;;;;;27.20;5.22;;;;;;;20.87;100.00;100435.94;4958570;28;20233;-76
2023/06/19 04:50:30;;;;;;;55.88;9.52;;;;;;;20.94;100.00;100411.50;4957487;28;20307;-76
2023/06/19 04:52:56;;;;;;;27.02;5.35;;;;;;;20.96;100.00;100414.13;4961497;28;20232;-76
2023/06/19 04:55:25;;;;;;;82.50;14.00;;;;;;;20.89;100.00;100417.97;4957225;28;20217;-76
2023/06/19 04:57:52;;;;;;;28.02;5.40;;;;;;;20.77;100.00;100428.16;4955725;28;20233;-75
2023/06/19 05:00:19;;;;;;;45.35;9.18;;;;;;;20.70;100.00;100442.72;4952297;28;20233;-75
2023/06/19 05:02:47;;;;;;;25.73;4.95;;;;;;;20.68;100.00;100458.00;4954980;28;20234;-77
2023/06/19 05:05:14;;;;;;;29.83;6.85;;;;;;;20.75;100.00;100458.69;4956359;28;20287;-74
2023/06/19 05:07:41;;;;;;;22.25;4.45;;;;;;;20.77;100.00;100476.53;4960277;28;20241;-76
2023/06/19 05:10:08;;;;;;;25.02;4.88;;;;;;;20.77;100.00;100468.47;4959313;28;20237;-76
2023/06/19 05:12:35;;;;;;;23.42;4.65;;;;;;;20.96;100.00;100492.09;4955811;28;20256;-77
2023/06/19 05:15:03;;;;;;;24.80;4.93;;;;;;;20.88;100.00;100494.16;4959452;28;20240;-76
2023/06/19 05:17:30;;;;;;;51.33;10.75;;;;;;;20.85;100.00;100499.63;4955801;28;20229;-76
2023/06/19 05:19:56;;;;;;;20.70;4.13;;;;;;;20.97;100.00;100493.84;4961028;28;20239;-76
2023/06/19 05:22:23;;;;;;;35.20;7.88;;;;;;;21.04;100.00;100507.03;4958198;28;20232;-77
2023/06/19 05:24:50;;;;;;;33.35;6.53;;;;;;;21.19;100.00;100494.03;4960401;28;20729;-76
2023/06/19 05:27:17;;;;;;;34.58;7.45;;;;;;;21.32;100.00;100495.41;4955677;28;20241;-77
2023/06/19 05:29:44;;;;;;;21.95;4.40;;;;;;;21.25;100.00;100500.09;4959326;28;20241;-77
2023/06/19 05:32:10;;;;;;;25.15;4.97;;;;;;;21.27;100.00;100502.75;4952779;28;20228;-78
2023/06/19 05:34:37;;;;;;;24.85;4.88;;;;;;;21.28;100.00;100494.63;4959073;28;20244;-76
2023/06/19 05:37:04;;;;;;;19.63;3.97;;;;;;;21.38;100.00;100496.06;4961741;28;20237;-77
2023/06/19 05:39:31;;;;;;;37.40;7.93;;;;;;;21.64;100.00;100494.28;4955828;28;20740;-78
2023/06/19 05:41:57;;;;;;;24.42;4.57;;;;;;;21.95;100.00;100459.03;4972277;28;20248;-75
2023/06/19 05:44:24;;;;;;;38.05;9.35;;;;;;;21.78;100.00;100456.97;4956483;28;20328;-75
2023/06/19 05:46:51;;;;;;;25.77;5.05;;;;;;;21.77;100.00;100435.50;4962048;28;20248;-76
2023/06/19 05:49:17;;;;;;;29.35;6.38;;;;;;;22.00;100.00;100417.53;4954137;28;20229;-77
2023/06/19 05:51:44;;;;;;;29.17;5.72;;;;;;;22.03;100.00;100401.28;4955666;28;20237;-75
2023/06/19 05:54:11;;;;;;;31.08;6.07;;;;;;;22.05;100.00;100382.38;4959286;28;20224;-76
2023/06/19 05:56:37;;;;;;;20.70;4.13;;;;;;;22.20;100.00;100397.09;4952747;28;20612;-75
2023/06/19 05:59:04;;;;;;;27.48;5.40;;;;;;;22.34;100.00;100383.97;4946868;28;20239;-76
2023/06/19 06:01:31;;;;;;;54.95;12.10;;;;;;;22.38;100.00;100382.91;4951750;28;20243;-76
2023/06/19 06:03:58;;;;;;;30.83;6.07;;;;;;;22.38;100.00;100374.81;4965998;28;20232;-75
2023/06/19 06:06:25;;;;;;;37.10;7.97;;;;;;;22.32;100.00;100365.16;4956811;28;20271;-75
2023/06/19 06:08:52;;;;;;;34.35;6.65;;;;;;;22.54;100.00;100373.25;4959442;28;20246;-75
2023/06/19 06:11:19;;;;;;;48.78;11.27;;;;;;;22.57;100.00;100380.34;4954325;28;20232;-74
2023/06/19 06:13:46;;;;;;;28.23;5.68;;;;;;;22.56;100.00;100357.91;4956570;28;20240;-74
2023/06/19 06:16:14;;;;;;;27.17;6.22;;;;;;;22.76;100.00;100364.25;4953111;28;20303;-75
2023/06/19 06:18:40;;;;;;;28.83;9.05;;;;;;;22.73;100.00;100348.22;4950432;28;20239;-75
2023/06/19 06:21:08;;;;;;;39.92;9.35;;;;;;;22.78;100.00;100347.09;4959508;28;20232;-75
2023/06/19 06:23:34;;;;;;;26.50;10.40;;;;;;;22.99;100.00;100366.88;4936004;28;20260;-75
2023/06/19 06:26:02;;;;;;;25.40;11.73;;;;;;;22.95;100.00;100339.19;4960897;28;20232;-75
2023/06/19 06:28:29;;;;;;;49.08;12.13;;;;;;;22.85;100.00;100336.94;4956252;28;20220;-75
2023/06/19 06:30:56;;;;;;;26.05;5.68;;;;;;;22.87;100.00;100337.75;4965172;28;20227;-75
2023/06/19 06:33:23;;;;;;;38.90;9.00;;;;;;;22.95;100.00;100325.69;4964842;28;20259;-75
2023/06/19 06:35:51;;;;;;;23.50;5.30;;;;;;;22.96;100.00;100331.97;4964271;28;20632;-75
2023/06/19 06:38:18;;;;;;;51.03;11.18;;;;;;;22.90;100.00;100325.00;4957931;28;20264;-77
2023/06/19 06:40:46;;;;;;;37.85;7.55;;;;;;;23.04;100.00;100324.41;4962818;28;20241;-75
2023/06/19 06:43:13;;;;;;;30.65;6.13;;;;;;;23.11;100.00;100331.28;4957645;28;20241;-76
2023/06/19 06:45:41;;;;;;;26.17;5.25;;;;;;;23.20;100.00;100333.56;4957334;28;20244;-76
2023/06/19 06:48:09;;;;;;;26.27;5.50;;;;;;;23.61;100.00;100355.19;4960146;28;20310;-76
2023/06/19 06:50:36;;;;;;;27.10;5.60;;;;;;;23.66;100.00;100341.47;4953829;28;20248;-75
2023/06/19 06:53:03;;;;;;;29.17;5.82;;;;;;;23.58;100.00;100312.13;4961363;28;20237;-78
2023/06/19 06:55:29;;;;;;;47.15;10.38;;;;;;;23.63;100.00;100318.19;4957864;28;20220;-76
2023/06/19 06:57:56;;;;;;;30.35;6.15;;;;;;;23.79;100.00;100312.94;4963567;28;20242;-76
2023/06/19 07:00:23;;;;;;;53.75;11.50;;;;;;;23.84;100.00;100303.69;4956708;28;20253;-76
2023/06/19 07:02:51;;;;;;;27.60;5.40;;;;;;;24.05;100.00;100309.88;4957547;28;20268;-76
2023/06/19 07:05:18;;;;;;;38.30;8.35;;;;;;;23.99;100.00;100295.78;4956110;28;20576;-76
2023/06/19 07:07:45;;;;;;;25.33;5.05;;;;;;;24.00;100.00;100302.94;4965047;28;20244;-77
2023/06/19 07:10:11;;;;;;;25.30;5.07;;;;;;;24.18;100.00;100286.72;4962670;28;20229;-76
2023/06/19 07:12:48;;;;;;;27.58;5.45;;;;;;;24.57;100.00;100285.69;4959459;28;20240;-76
2023/06/19 07:15:15;;;;;;;39.78;10.05;;;;;;;24.32;100.00;100248.22;4977538;22;20243;-76
2023/06/19 07:17:47;;;;;;;25.88;5.13;;;;;;;24.15;100.00;100227.41;4977438;28;20236;-77
2023/06/19 07:20:18;;;;;;;41.58;8.63;;;;;;;24.46;100.00;100255.63;4968936;28;20239;-77
2023/06/19 07:22:45;;;;;;;24.10;5.03;;;;;;;24.65;100.00;100245.63;4978459;28;20236;-77
2023/06/19 07:25:13;;;;;;;17.98;3.58;;;;;;;24.54;100.00;100227.25;4989418;28;20234;-78
2023/06/19 07:27:40;;;;;;;60.03;11.85;;;;;;;24.43;100.00;100216.13;5025924;23;20230;-77
2023/06/19 07:30:07;;;;;;;25.63;6.57;;;;;;;24.77;100.00;100231.50;5012880;28;20223;-77
2023/06/19 07:32:34;;;;;;;19.92;4.00;;;;;;;24.99;100.00;100220.44;4983953;28;20301;-77
2023/06/19 07:35:01;;;;;;;27.40;5.30;;;;;;;24.91;100.00;100203.69;5006303;28;20234;-77
2023/06/19 07:37:28;;;;;;;55.25;11.27;;;;;;;25.14;100.00;100203.38;4997767;28;20318;-77
2023/06/19 07:39:55;;;;;;;27.05;6.00;;;;;;;25.00;100.00;100168.06;5000731;28;20227;-77
2023/06/19 07:42:22;;;;;;;31.35;7.57;;;;;;;25.17;100.00;100184.25;5004859;28;20234;-76
2023/06/19 07:44:49;;;;;;;22.85;6.22;;;;;;;24.96;100.00;100162.88;5007426;28;20230;-75
2023/06/19 07:47:18;;;;;;;27.75;5.78;;;;;;;25.18;100.00;100169.75;5015077;28;20222;-74
2023/06/19 07:49:45;;;;;;;32.63;6.45;;;;;;;25.50;100.00;100159.81;5008636;28;20239;-75
2023/06/19 07:52:13;;;;;;;28.90;5.65;;;;;;;25.81;100.00;100163.50;5018613;28;20230;-75
2023/06/19 07:54:55;;;;;;;21.30;4.25;;;;;;;25.50;100.00;100102.97;5009494;28;20234;-75
2023/06/19 07:57:24;;;;;;;31.55;8.00;;;;;;;25.36;100.00;100100.19;5009019;28;20229;-76
2023/06/19 07:59:51;;;;;;;20.77;4.68;;;;;;;25.36;100.00;100097.47;5002656;28;20231;-75
2023/06/19 08:02:18;;;;;;;34.90;7.18;;;;;;;25.70;100.00;100107.25;4997625;28;20293;-75
2023/06/19 08:04:45;;;;;;;20.42;4.07;;;;;;;26.24;100.00;100125.78;5006336;28;20246;-75
2023/06/19 08:07:12;;;;;;;23.02;4.63;;;;;;;26.15;100.00;100097.38;5017959;28;20309;-75
2023/06/19 08:09:39;;;;;;;19.50;3.75;;;;;;;25.87;100.00;100053.91;5002193;28;20245;-75
2023/06/19 08:12:06;;;;;;;24.35;5.32;;;;;;;26.06;100.00;100054.59;5013715;28;20238;-75
2023/06/19 08:14:33;;;;;;;34.00;7.45;;;;;;;25.82;100.00;100038.81;5009805;28;20222;-76
2023/06/19 08:16:59;;;;;;;20.88;4.18;;;;;;;25.80;100.00;100034.44;5019216;28;20318;-74
2023/06/19 08:19:26;;;;;;;45.03;9.60;;;;;;;25.92;100.00;100024.72;5008157;28;20227;-75
2023/06/19 08:21:53;;;;;;;33.00;6.38;;;;;;;26.19;100.00;100030.31;5012556;28;20241;-75
2023/06/19 08:24:20;;;;;;;33.67;7.40;;;;;;;26.51;100.00;100044.59;5005373;28;20249;-75
2023/06/19 08:26:50;;;;;;;21.80;4.30;;;;;;;26.07;100.00;99986.75;5022332;28;20323;-74
2023/06/19 08:29:18;;;;;;;40.35;8.50;;;;;;;26.60;100.00;100006.91;5006399;28;20231;-76
2023/06/19 08:31:45;;;;;;;29.70;5.82;;;;;;;26.52;100.00;99973.13;5005524;28;20241;-76
2023/06/19 08:34:11;;;;;;;31.63;6.15;;;;;;;26.63;100.00;99984.16;5008091;28;20242;-76
2023/06/19 08:36:38;;;;;;;26.30;5.10;;;;;;;26.44;100.00;99958.22;5002115;28;20238;-74
2023/06/19 08:39:05;;;;;;;25.38;5.07;;;;;;;26.13;100.00;99923.16;5002227;28;20234;-73
2023/06/19 08:41:31;;;;;;;45.03;10.13;;;;;;;25.88;100.00;99912.09;4997350;28;20231;-74
2023/06/19 08:43:58;;;;;;;21.55;4.20;;;;;;;26.64;100.00;99975.06;4996989;28;20234;-75
2023/06/19 08:46:25;;;;;;;41.15;8.88;;;;;;;26.38;100.00;99906.22;4995577;28;20284;-77
2023/06/19 08:48:54;;;;;;;23.77;4.88;;;;;;;26.32;100.00;99917.44;4998395;28;20260;-76
2023/06/19 08:51:21;;;;;;;33.88;8.25;;;;;;;26.05;100.00;99904.69;5012451;28;20233;-75
2023/06/19 08:53:54;;;;;;;23.77;4.78;;;;;;;26.45;100.00;99916.56;5005783;28;20238;-75
2023/06/19 08:56:20;;;;;;;44.60;9.98;;;;;;;26.48;100.00;99915.50;5005258;28;20316;-76
2023/06/19 08:58:47;;;;;;;24.63;5.13;;;;;;;26.22;100.00;99868.38;5000651;28;20237;-75
2023/06/19 09:01:18;;;;;;;27.15;5.45;;;;;;;26.56;100.00;99902.31;5010477;28;20299;-75
2023/06/19 09:03:46;;;;;;;22.55;4.90;;;;;;;26.92;100.00;99925.28;5000218;28;20226;-74
2023/06/19 09:06:16;;;;;;;34.58;7.30;;;;;;;26.85;100.00;99903.09;5000641;28;20820;-75
2023/06/19 09:08:43;;;;;;;25.30;5.43;;;;;;;26.61;100.00;99864.06;4992974;28;20219;-75
2023/06/19 09:11:11;;;;;;;23.48;5.00;;;;;;;26.10;100.00;99845.63;5003826;28;20227;-74
2023/06/19 09:13:38;;;;;;;28.65;6.07;;;;;;;25.88;100.00;99825.41;4991735;28;20592;-75
2023/06/19 09:16:06;;;;;;;34.17;6.65;;;;;;;26.10;100.00;99840.22;5001651;28;20231;-77
2023/06/19 09:18:43;;;;;;;35.40;8.45;;;;;;;26.20;100.00;99835.06;4994511;28;20331;-77
2023/06/19 09:21:21;;;;;;;22.42;5.13;;;;;;;26.33;100.00;99867.72;5023628;28;20226;-76
2023/06/19 09:23:51;;;;;;;19.48;5.85;;;;;;;26.57;100.00;99895.94;5010136;28;20218;-77
2023/06/19 09:26:19;;;;;;;52.08;11.32;;;;;;;26.36;100.00;99856.66;5003291;28;20223;-77
2023/06/19 09:28:50;;;;;;;20.95;5.30;;;;;;;26.61;100.00;99847.78;5012281;28;20238;-78
2023/06/19 09:31:17;;;;;;;31.50;7.72;;;;;;;27.00;100.00;99879.53;5014316;28;20593;-76
2023/06/19 09:33:43;;;;;;;24.00;7.57;;;;;;;26.92;100.00;99855.59;5015324;28;20226;-77
2023/06/19 09:36:10;;;;;;;19.35;3.80;;;;;;;26.93;100.00;99880.88;5008206;28;20237;-78
2023/06/19 09:38:39;;;;;;;19.65;3.83;;;;;;;26.77;100.00;99851.22;4997742;28;20703;-77
2023/06/19 09:41:07;;;;;;;20.02;4.55;;;;;;;26.86;100.00;99839.72;5008804;28;20250;-76
2023/06/19 09:43:46;;;;;;;33.70;13.38;;;;;;;27.26;100.00;99875.03;5006816;28;20246;-77
2023/06/19 09:46:14;;;;;;;26.10;12.75;;;;;;;27.34;100.00;99835.56;5000165;28;20223;-79
2023/06/19 09:48:43;;;;;;;35.28;25.60;;;;;;;28.13;100.00;99874.38;5015341;28;20237;-77
2023/06/19 09:51:18;;;;;;;28.70;16.20;;;;;;;27.62;100.00;99787.47;5025096;28;20271;-77
2023/06/19 09:53:46;;;;;;;42.58;38.25;;;;;;;27.43;100.00;99758.00;5006172;28;20230;-77
2023/06/19 09:56:14;;;;;;;34.65;25.80;;;;;;;27.67;100.00;99783.44;5009274;28;20231;-79
2023/06/19 09:58:44;;;;;;;43.47;39.08;;;;;;;28.14;100.00;99794.56;5000170;28;20235;-77
2023/06/19 10:01:12;;;;;;;45.70;37.15;;;;;;;27.65;100.00;99698.47;5004785;28;20266;-77
2023/06/19 10:03:40;;;;;;;33.58;7.88;;;;;;;27.60;100.00;99711.53;4984991;28;20295;-77
2023/06/19 10:06:13;;;;;;;30.95;26.73;;;;;;;27.98;100.00;99751.31;5016447;28;20232;-76
2023/06/19 10:08:41;;;;;;;100.55;93.60;;;;;;;28.32;100.00;99742.41;5012325;28;20230;-77
2023/06/19 10:11:07;;;;;;;32.63;21.48;;;;;;;28.09;100.00;99691.59;5008328;28;20246;-77
2023/06/19 10:13:38;;;;;;;38.97;34.97;;;;;;;28.03;100.00;99670.31;5015497;28;20350;-76
2023/06/19 10:16:06;;;;;;;28.38;11.65;;;;;;;27.55;100.00;99626.78;5003264;28;20311;-77
2023/06/19 10:18:43;;;;;;;43.70;12.65;;;;;;;28.32;100.00;99701.63;4999488;28;20237;-77
2023/06/19 10:21:17;;;;;;;30.52;10.82;;;;;;;28.48;97.29;99640.63;5012700;28;20226;-78
2023/06/19 10:23:57;;;;;;;43.80;28.52;;;;;;;28.15;99.29;99598.72;5008714;28;20238;-77
2023/06/19 10:26:32;;;;;;;53.22;17.48;;;;;;;29.12;93.91;99628.31;5017460;28;20316;-79
2023/06/19 10:28:59;;;;;;;30.63;7.60;;;;;;;27.79;94.94;99490.13;5009848;28;20299;-77
2023/06/19 10:31:28;;;;;;;43.58;20.83;;;;;;;29.47;91.44;99611.84;5013529;28;20226;-79
2023/06/19 10:33:56;;;;;;;35.85;19.92;;;;;;;28.84;90.74;99511.75;5008038;28;20234;-77
2023/06/19 10:36:25;;;;;;;60.70;42.80;;;;;;;29.39;98.00;99627.91;5012357;28;20226;-77
2023/06/19 10:38:53;;;;;;;70.82;64.78;;;;;;;29.53;90.06;99548.69;5017258;28;20246;-77
2023/06/19 10:41:22;;;;;;;92.78;83.80;;;;;;;29.58;88.06;99527.38;5016761;28;20238;-77
2023/06/19 10:43:53;;;;;;;61.90;56.65;;;;;;;29.23;88.86;99496.72;5023650;28;20712;-78
2023/06/19 10:46:24;;;;;;;76.43;65.32;;;;;;;29.81;91.17;99549.94;5008372;28;20227;-77
2023/06/19 10:48:56;;;;;;;35.78;19.38;;;;;;;29.99;90.98;99555.72;4995701;28;20222;-77
2023/06/19 10:51:23;;;;;;;63.15;37.97;;;;;;;30.51;89.40;99554.84;5004105;28;20237;-78
2023/06/19 10:53:49;;;;;;;33.67;22.42;;;;;;;29.87;88.87;99458.63;5014916;28;20300;-77
2023/06/19 10:56:20;;;;;;;37.42;30.33;;;;;;;30.24;92.12;99528.09;5008517;28;20222;-76
2023/06/19 10:58:46;;;;;;;24.17;13.77;;;;;;;30.48;90.65;99530.56;5015859;28;20611;-77
2023/06/19 11:01:14;;;;;;;24.85;5.63;;;;;;;30.35;88.56;99478.06;5015521;28;20230;-81
2023/06/19 11:03:41;;;;;;;22.70;4.82;;;;;;;29.78;87.21;99404.91;5020965;28;20663;-78
2023/06/19 11:06:09;;;;;;;28.48;10.05;;;;;;;30.36;84.54;99425.25;5002280;28;20243;-78
2023/06/19 11:08:35;;;;;;;48.03;43.80;;;;;;;30.63;84.85;99441.06;5006208;28;20241;-78
2023/06/19 11:11:03;;;;;;;89.10;82.35;;;;;;;31.34;83.96;99474.63;5019602;28;20238;-78
2023/06/19 11:13:29;;;;;;;76.75;28.17;;;;;;;30.83;82.82;99393.72;5004322;28;20231;-78
2023/06/19 11:15:58;;;;;;;149.50;137.95;;;;;;;31.23;83.43;99422.00;5018441;28;20223;-77